Terminal Aerodrome Forecast
Issued by NWS St Louis, MO

Home | Current Version | Previous Version | Text Only | Print | Product List | Glossary On
Versions: 1 2 3 4 5 6 7 8 9 10 11 12 13 14 15 16 17
000
FTUS43 KLSX 181100
TAFCOU
TAF
KCOU 181136Z 1812/1912 09004KT 2SM -SN OVC025
     FM181300 06005KT 5SM -SN BR OVC025
     FM181600 07005KT 6SM -SN BR OVC015
     FM182000 07005KT 5SM BR OVC015
     FM190300 07004KT 3SM BR OVC008=

USA.gov is the U.S. government's official web portal to all federal, state and local government web resources and services.